sensor_id;sensor_type;location;lat;lon;timestamp;P1;P2;P0
69205;PMS7003;56319;48.920;2.332;2023-10-09T00:00:50;36.00;30.00;22.50
69205;PMS7003;56319;48.920;2.332;2023-10-09T00:03:17;33.00;28.00;22.50
69205;PMS7003;56319;48.920;2.332;2023-10-09T00:05:43;36.00;30.25;22.50
69205;PMS7003;56319;48.920;2.332;2023-10-09T00:08:11;36.25;31.00;23.00
69205;PMS7003;56319;48.920;2.332;2023-10-09T00:10:42;28.25;25.50;20.75
69205;PMS7003;56319;48.920;2.332;2023-10-09T00:13:17;34.75;32.00;23.25
69205;PMS7003;56319;48.920;2.332;2023-10-09T00:15:44;29.50;29.25;22.75
69205;PMS7003;56319;48.920;2.332;2023-10-09T00:18:16;32.50;31.00;24.50
69205;PMS7003;56319;48.920;2.332;2023-10-09T00:20:47;31.75;26.75;21.25
69205;PMS7003;56319;48.920;2.332;2023-10-09T00:23:19;33.00;28.50;20.25
69205;PMS7003;56319;48.920;2.332;2023-10-09T00:28:36;28.00;26.25;21.50
69205;PMS7003;56319;48.920;2.332;2023-10-09T00:31:04;40.50;31.50;22.50
69205;PMS7003;56319;48.920;2.332;2023-10-09T00:33:32;34.50;33.50;23.25
69205;PMS7003;56319;48.920;2.332;2023-10-09T00:36:03;42.00;32.75;23.25
69205;PMS7003;56319;48.920;2.332;2023-10-09T00:38:34;33.75;33.00;24.50
69205;PMS7003;56319;48.920;2.332;2023-10-09T00:41:01;32.25;28.50;22.00
69205;PMS7003;56319;48.920;2.332;2023-10-09T00:43:47;33.00;28.75;21.25
69205;PMS7003;56319;48.920;2.332;2023-10-09T00:46:15;31.50;29.75;22.75
69205;PMS7003;56319;48.920;2.332;2023-10-09T00:48:57;28.50;27.25;19.50
69205;PMS7003;56319;48.920;2.332;2023-10-09T00:51:27;33.00;29.25;21.75
69205;PMS7003;56319;48.920;2.332;2023-10-09T00:54:00;26.75;25.75;20.25
69205;PMS7003;56319;48.920;2.332;2023-10-09T00:56:32;38.00;33.00;23.25
69205;PMS7003;56319;48.920;2.332;2023-10-09T00:59:18;29.50;28.00;22.00
69205;PMS7003;56319;48.920;2.332;2023-10-09T01:01:45;30.75;29.25;22.25
69205;PMS7003;56319;48.920;2.332;2023-10-09T01:04:23;29.25;26.25;20.25
69205;PMS7003;56319;48.920;2.332;2023-10-09T01:06:50;29.75;26.50;20.25
69205;PMS7003;56319;48.920;2.332;2023-10-09T01:09:33;30.00;27.00;20.00
69205;PMS7003;56319;48.920;2.332;2023-10-09T01:12:03;30.75;26.50;20.50
69205;PMS7003;56319;48.920;2.332;2023-10-09T01:14:30;30.75;27.25;21.25
69205;PMS7003;56319;48.920;2.332;2023-10-09T01:17:01;30.25;28.50;22.75
69205;PMS7003;56319;48.920;2.332;2023-10-09T01:19:31;33.75;27.50;22.00
69205;PMS7003;56319;48.920;2.332;2023-10-09T01:21:58;29.00;28.75;21.00
69205;PMS7003;56319;48.920;2.332;2023-10-09T01:24:29;31.50;28.25;22.25
69205;PMS7003;56319;48.920;2.332;2023-10-09T01:27:00;25.75;23.00;17.50
69205;PMS7003;56319;48.920;2.332;2023-10-09T01:29:30;30.25;28.00;21.75
69205;PMS7003;56319;48.920;2.332;2023-10-09T01:31:55;33.50;31.25;22.75
69205;PMS7003;56319;48.920;2.332;2023-10-09T01:34:28;35.00;30.75;22.50
69205;PMS7003;56319;48.920;2.332;2023-10-09T01:37:18;29.75;28.25;21.25
69205;PMS7003;56319;48.920;2.332;2023-10-09T01:39:49;30.75;29.75;22.75
69205;PMS7003;56319;48.920;2.332;2023-10-09T01:42:16;28.00;25.75;21.50
69205;PMS7003;56319;48.920;2.332;2023-10-09T01:45:02;31.50;29.00;21.25
69205;PMS7003;56319;48.920;2.332;2023-10-09T01:47:48;31.25;29.50;22.75
69205;PMS7003;56319;48.920;2.332;2023-10-09T01:50:18;30.75;26.50;21.00
69205;PMS7003;56319;48.920;2.332;2023-10-09T01:52:45;28.50;27.50;21.25
69205;PMS7003;56319;48.920;2.332;2023-10-09T01:55:11;34.50;31.25;23.25
69205;PMS7003;56319;48.920;2.332;2023-10-09T01:57:53;26.00;22.25;16.50
69205;PMS7003;56319;48.920;2.332;2023-10-09T02:00:19;28.50;27.00;21.25
69205;PMS7003;56319;48.920;2.332;2023-10-09T02:02:49;29.50;29.50;21.75
69205;PMS7003;56319;48.920;2.332;2023-10-09T02:05:15;31.25;26.75;20.50
69205;PMS7003;56319;48.920;2.332;2023-10-09T02:07:54;27.25;27.25;22.50
69205;PMS7003;56319;48.920;2.332;2023-10-09T02:10:21;33.75;31.25;23.50
69205;PMS7003;56319;48.920;2.332;2023-10-09T02:12:58;30.50;27.50;21.25
69205;PMS7003;56319;48.920;2.332;2023-10-09T02:15:26;32.50;30.25;22.25
69205;PMS7003;56319;48.920;2.332;2023-10-09T02:18:14;34.75;29.25;21.75
69205;PMS7003;56319;48.920;2.332;2023-10-09T02:21:05;35.75;30.75;22.25
69205;PMS7003;56319;48.920;2.332;2023-10-09T02:23:38;29.00;26.25;19.25
69205;PMS7003;56319;48.920;2.332;2023-10-09T02:26:06;30.00;26.75;20.25
69205;PMS7003;56319;48.920;2.332;2023-10-09T02:28:33;31.25;29.50;22.00
69205;PMS7003;56319;48.920;2.332;2023-10-09T02:31:00;32.50;31.00;22.25
69205;PMS7003;56319;48.920;2.332;2023-10-09T02:33:35;30.00;26.25;20.50
69205;PMS7003;56319;48.920;2.332;2023-10-09T02:36:02;29.00;28.00;21.25
69205;PMS7003;56319;48.920;2.332;2023-10-09T02:38:30;36.00;31.75;22.25
69205;PMS7003;56319;48.920;2.332;2023-10-09T02:41:00;29.50;25.25;20.50
69205;PMS7003;56319;48.920;2.332;2023-10-09T02:43:46;31.00;30.00;22.00
69205;PMS7003;56319;48.920;2.332;2023-10-09T02:46:13;33.00;31.00;22.00
69205;PMS7003;56319;48.920;2.332;2023-10-09T02:48:43;28.50;26.00;21.00
69205;PMS7003;56319;48.920;2.332;2023-10-09T02:51:13;29.00;26.50;21.25
69205;PMS7003;56319;48.920;2.332;2023-10-09T02:53:56;26.75;25.00;20.75
69205;PMS7003;56319;48.920;2.332;2023-10-09T02:56:23;30.50;29.00;20.75
69205;PMS7003;56319;48.920;2.332;2023-10-09T02:58:50;30.50;28.50;21.25
69205;PMS7003;56319;48.920;2.332;2023-10-09T03:01:16;31.50;28.50;21.50
69205;PMS7003;56319;48.920;2.332;2023-10-09T03:03:42;26.50;25.25;20.25
69205;PMS7003;56319;48.920;2.332;2023-10-09T03:06:13;25.50;23.50;19.50
69205;PMS7003;56319;48.920;2.332;2023-10-09T03:08:44;28.25;25.75;19.50
69205;PMS7003;56319;48.920;2.332;2023-10-09T03:11:13;28.50;26.50;21.50
69205;PMS7003;56319;48.920;2.332;2023-10-09T03:13:40;33.50;29.25;22.00
69205;PMS7003;56319;48.920;2.332;2023-10-09T03:16:08;29.75;29.75;22.00
69205;PMS7003;56319;48.920;2.332;2023-10-09T03:18:39;33.00;27.25;21.25
69205;PMS7003;56319;48.920;2.332;2023-10-09T03:21:05;29.25;26.50;21.25
69205;PMS7003;56319;48.920;2.332;2023-10-09T03:23:31;29.75;26.00;20.50
69205;PMS7003;56319;48.920;2.332;2023-10-09T03:25:57;33.75;28.25;22.00
69205;PMS7003;56319;48.920;2.332;2023-10-09T03:28:24;34.50;31.25;22.00
69205;PMS7003;56319;48.920;2.332;2023-10-09T03:30:49;30.50;28.75;21.25
69205;PMS7003;56319;48.920;2.332;2023-10-09T03:33:16;27.25;24.75;19.50
69205;PMS7003;56319;48.920;2.332;2023-10-09T03:35:42;25.75;25.75;21.50
69205;PMS7003;56319;48.920;2.332;2023-10-09T03:38:08;29.00;23.25;19.25
69205;PMS7003;56319;48.920;2.332;2023-10-09T03:40:41;29.00;27.25;21.75
69205;PMS7003;56319;48.920;2.332;2023-10-09T03:43:10;23.25;21.75;18.75
69205;PMS7003;56319;48.920;2.332;2023-10-09T03:45:36;30.75;26.75;20.75
69205;PMS7003;56319;48.920;2.332;2023-10-09T03:48:04;24.50;24.50;19.75
69205;PMS7003;56319;48.920;2.332;2023-10-09T03:50:39;28.50;25.00;20.25
69205;PMS7003;56319;48.920;2.332;2023-10-09T03:53:08;24.00;23.75;20.50
69205;PMS7003;56319;48.920;2.332;2023-10-09T03:55:37;28.25;24.50;19.25
69205;PMS7003;56319;48.920;2.332;2023-10-09T03:58:05;26.75;24.00;19.25
69205;PMS7003;56319;48.920;2.332;2023-10-09T04:00:32;27.00;25.00;18.25
69205;PMS7003;56319;48.920;2.332;2023-10-09T04:03:06;26.75;25.25;20.25
69205;PMS7003;56319;48.920;2.332;2023-10-09T04:05:31;25.50;23.50;20.00
69205;PMS7003;56319;48.920;2.332;2023-10-09T04:07:57;30.75;26.75;20.50
69205;PMS7003;56319;48.920;2.332;2023-10-09T04:10:27;25.25;22.00;17.75
69205;PMS7003;56319;48.920;2.332;2023-10-09T04:13:12;25.50;24.25;18.75
69205;PMS7003;56319;48.920;2.332;2023-10-09T04:15:43;29.75;27.00;21.00
69205;PMS7003;56319;48.920;2.332;2023-10-09T04:18:08;23.00;22.50;19.25
69205;PMS7003;56319;48.920;2.332;2023-10-09T04:20:40;30.25;23.50;17.00
69205;PMS7003;56319;48.920;2.332;2023-10-09T04:23:26;28.00;25.00;18.25
69205;PMS7003;56319;48.920;2.332;2023-10-09T04:26:11;24.50;24.50;20.00
69205;PMS7003;56319;48.920;2.332;2023-10-09T04:28:39;30.00;25.00;17.75
69205;PMS7003;56319;48.920;2.332;2023-10-09T04:31:07;25.75;24.75;19.00
69205;PMS7003;56319;48.920;2.332;2023-10-09T04:33:32;25.25;23.25;19.00
69205;PMS7003;56319;48.920;2.332;2023-10-09T04:36:08;25.75;21.00;15.25
69205;PMS7003;56319;48.920;2.332;2023-10-09T04:38:40;25.25;23.00;19.00
69205;PMS7003;56319;48.920;2.332;2023-10-09T04:41:22;29.25;28.00;22.00
69205;PMS7003;56319;48.920;2.332;2023-10-09T04:43:53;23.75;23.00;19.25
69205;PMS7003;56319;48.920;2.332;2023-10-09T04:46:29;30.75;28.00;20.50
69205;PMS7003;56319;48.920;2.332;2023-10-09T04:49:09;24.00;21.50;17.00
69205;PMS7003;56319;48.920;2.332;2023-10-09T04:51:55;27.50;24.50;17.75
69205;PMS7003;56319;48.920;2.332;2023-10-09T04:54:31;29.75;25.25;20.50
69205;PMS7003;56319;48.920;2.332;2023-10-09T04:57:04;22.50;22.00;19.50
69205;PMS7003;56319;48.920;2.332;2023-10-09T04:59:43;27.50;23.75;18.75
69205;PMS7003;56319;48.920;2.332;2023-10-09T05:02:13;24.75;23.00;17.25
69205;PMS7003;56319;48.920;2.332;2023-10-09T05:04:44;22.25;22.25;19.25
69205;PMS7003;56319;48.920;2.332;2023-10-09T05:07:13;22.00;20.00;16.00
69205;PMS7003;56319;48.920;2.332;2023-10-09T05:09:58;21.75;21.75;18.50
69205;PMS7003;56319;48.920;2.332;2023-10-09T05:12:40;17.75;17.75;16.00
69205;PMS7003;56319;48.920;2.332;2023-10-09T05:15:12;25.75;24.25;18.50
69205;PMS7003;56319;48.920;2.332;2023-10-09T05:17:39;23.50;19.75;15.25
69205;PMS7003;56319;48.920;2.332;2023-10-09T05:20:06;23.25;21.25;15.75
69205;PMS7003;56319;48.920;2.332;2023-10-09T05:22:51;27.25;21.50;17.25
69205;PMS7003;56319;48.920;2.332;2023-10-09T05:25:38;25.50;21.00;17.50
69205;PMS7003;56319;48.920;2.332;2023-10-09T05:28:18;25.25;20.75;15.75
69205;PMS7003;56319;48.920;2.332;2023-10-09T05:31:04;23.50;20.50;15.75
69205;PMS7003;56319;48.920;2.332;2023-10-09T05:33:34;24.50;21.00;17.00
69205;PMS7003;56319;48.920;2.332;2023-10-09T05:36:03;23.50;20.25;15.50
69205;PMS7003;56319;48.920;2.332;2023-10-09T05:38:40;23.25;21.75;15.50
69205;PMS7003;56319;48.920;2.332;2023-10-09T05:41:12;21.75;21.75;17.00
69205;PMS7003;56319;48.920;2.332;2023-10-09T05:43:58;19.50;19.00;13.75
69205;PMS7003;56319;48.920;2.332;2023-10-09T05:46:43;26.25;22.75;19.25
69205;PMS7003;56319;48.920;2.332;2023-10-09T05:49:28;23.25;21.25;17.25
69205;PMS7003;56319;48.920;2.332;2023-10-09T05:52:11;21.75;20.50;17.25
69205;PMS7003;56319;48.920;2.332;2023-10-09T05:54:57;20.25;19.50;14.50
69205;PMS7003;56319;48.920;2.332;2023-10-09T05:57:43;21.00;19.25;15.25
69205;PMS7003;56319;48.920;2.332;2023-10-09T06:00:29;21.75;21.25;15.25
69205;PMS7003;56319;48.920;2.332;2023-10-09T06:03:14;21.50;20.75;16.00
69205;PMS7003;56319;48.920;2.332;2023-10-09T06:06:00;19.00;17.75;13.25
69205;PMS7003;56319;48.920;2.332;2023-10-09T06:08:28;22.50;20.75;15.25
69205;PMS7003;56319;48.920;2.332;2023-10-09T06:11:15;24.00;19.75;15.00
69205;PMS7003;56319;48.920;2.332;2023-10-09T06:14:01;16.25;12.00;9.75
69205;PMS7003;56319;48.920;2.332;2023-10-09T06:16:30;20.25;16.50;14.50
69205;PMS7003;56319;48.920;2.332;2023-10-09T06:19:06;21.75;19.75;17.50
69205;PMS7003;56319;48.920;2.332;2023-10-09T06:21:34;19.75;17.50;13.50
69205;PMS7003;56319;48.920;2.332;2023-10-09T06:24:20;20.00;19.50;15.25
69205;PMS7003;56319;48.920;2.332;2023-10-09T06:26:48;18.50;17.25;12.75
69205;PMS7003;56319;48.920;2.332;2023-10-09T06:29:34;17.50;17.50;13.75
69205;PMS7003;56319;48.920;2.332;2023-10-09T06:32:02;21.25;20.50;14.25
69205;PMS7003;56319;48.920;2.332;2023-10-09T06:34:49;23.50;21.00;16.25
69205;PMS7003;56319;48.920;2.332;2023-10-09T06:37:17;24.75;20.75;16.25
69205;PMS7003;56319;48.920;2.332;2023-10-09T06:40:03;21.25;21.25;16.50
69205;PMS7003;56319;48.920;2.332;2023-10-09T06:42:49;19.00;17.25;13.25
69205;PMS7003;56319;48.920;2.332;2023-10-09T06:45:20;21.25;18.50;14.50
69205;PMS7003;56319;48.920;2.332;2023-10-09T06:47:46;22.00;19.25;15.75
69205;PMS7003;56319;48.920;2.332;2023-10-09T06:50:34;20.75;17.25;13.75
69205;PMS7003;56319;48.920;2.332;2023-10-09T06:53:20;22.25;19.50;14.50
69205;PMS7003;56319;48.920;2.332;2023-10-09T06:55:50;18.75;18.00;14.25
69205;PMS7003;56319;48.920;2.332;2023-10-09T06:58:17;17.00;13.00;10.75
69205;PMS7003;56319;48.920;2.332;2023-10-09T07:00:50;19.50;17.00;14.00
69205;PMS7003;56319;48.920;2.332;2023-10-09T07:03:36;17.50;16.00;13.50
69205;PMS7003;56319;48.920;2.332;2023-10-09T07:06:17;19.00;15.75;13.00
69205;PMS7003;56319;48.920;2.332;2023-10-09T07:09:04;16.25;14.25;10.75
69205;PMS7003;56319;48.920;2.332;2023-10-09T07:11:49;18.00;15.50;13.25
69205;PMS7003;56319;48.920;2.332;2023-10-09T07:14:23;21.75;17.75;13.75
69205;PMS7003;56319;48.920;2.332;2023-10-09T07:17:09;23.50;19.50;16.25
69205;PMS7003;56319;48.920;2.332;2023-10-09T07:19:55;20.25;17.00;14.00
69205;PMS7003;56319;48.920;2.332;2023-10-09T07:22:35;23.25;21.00;15.25
69205;PMS7003;56319;48.920;2.332;2023-10-09T07:25:04;11.50;11.50;8.25
69205;PMS7003;56319;48.920;2.332;2023-10-09T07:27:51;17.25;15.75;12.50
69205;PMS7003;56319;48.920;2.332;2023-10-09T07:30:19;20.00;18.00;14.25
69205;PMS7003;56319;48.920;2.332;2023-10-09T07:33:06;22.00;21.00;14.50
69205;PMS7003;56319;48.920;2.332;2023-10-09T07:35:44;13.75;13.75;11.00
69205;PMS7003;56319;48.920;2.332;2023-10-09T07:38:14;19.25;18.25;14.00
69205;PMS7003;56319;48.920;2.332;2023-10-09T07:40:45;17.75;15.00;12.50
69205;PMS7003;56319;48.920;2.332;2023-10-09T07:43:33;20.25;16.00;13.50
69205;PMS7003;56319;48.920;2.332;2023-10-09T07:46:05;15.25;14.00;11.00
69205;PMS7003;56319;48.920;2.332;2023-10-09T07:48:51;15.25;15.00;11.75
69205;PMS7003;56319;48.920;2.332;2023-10-09T07:51:19;19.75;19.25;14.50
69205;PMS7003;56319;48.920;2.332;2023-10-09T07:53:50;20.00;16.75;13.00
69205;PMS7003;56319;48.920;2.332;2023-10-09T07:56:23;14.25;14.00;12.00
69205;PMS7003;56319;48.920;2.332;2023-10-09T07:58:49;20.25;18.00;14.75
69205;PMS7003;56319;48.920;2.332;2023-10-09T08:01:17;14.50;13.25;10.00
69205;PMS7003;56319;48.920;2.332;2023-10-09T08:04:02;19.50;16.50;13.75
69205;PMS7003;56319;48.920;2.332;2023-10-09T08:06:36;17.25;15.75;13.00
69205;PMS7003;56319;48.920;2.332;2023-10-09T08:09:04;19.50;15.25;12.00
69205;PMS7003;56319;48.920;2.332;2023-10-09T08:11:50;16.00;14.50;11.50
69205;PMS7003;56319;48.920;2.332;2023-10-09T08:14:36;17.25;17.25;13.00
69205;PMS7003;56319;48.920;2.332;2023-10-09T08:17:14;19.75;16.25;12.25
69205;PMS7003;56319;48.920;2.332;2023-10-09T08:19:42;17.50;17.00;14.25
69205;PMS7003;56319;48.920;2.332;2023-10-09T08:22:31;19.25;19.00;14.00
69205;PMS7003;56319;48.920;2.332;2023-10-09T08:25:16;14.25;14.25;11.50
69205;PMS7003;56319;48.920;2.332;2023-10-09T08:28:02;20.50;15.50;12.50
69205;PMS7003;56319;48.920;2.332;2023-10-09T08:30:48;18.50;15.50;13.00
69205;PMS7003;56319;48.920;2.332;2023-10-09T08:33:17;12.75;12.00;9.50
69205;PMS7003;56319;48.920;2.332;2023-10-09T08:36:02;16.25;16.00;12.75
69205;PMS7003;56319;48.920;2.332;2023-10-09T08:38:29;14.25;11.25;10.25
69205;PMS7003;56319;48.920;2.332;2023-10-09T08:43:49;14.75;13.00;12.00
69205;PMS7003;56319;48.920;2.332;2023-10-09T08:46:17;14.75;14.25;12.75
69205;PMS7003;56319;48.920;2.332;2023-10-09T08:48:45;19.50;17.00;12.75
69205;PMS7003;56319;48.920;2.332;2023-10-09T08:51:11;16.00;15.25;13.50
69205;PMS7003;56319;48.920;2.332;2023-10-09T08:53:39;14.50;14.00;11.50
69205;PMS7003;56319;48.920;2.332;2023-10-09T08:56:09;16.00;15.00;12.75
69205;PMS7003;56319;48.920;2.332;2023-10-09T08:58:35;16.75;15.25;11.25
69205;PMS7003;56319;48.920;2.332;2023-10-09T09:01:03;22.00;16.50;12.75
69205;PMS7003;56319;48.920;2.332;2023-10-09T09:06:17;15.75;13.25;10.25
69205;PMS7003;56319;48.920;2.332;2023-10-09T09:08:44;14.50;13.00;11.25
69205;PMS7003;56319;48.920;2.332;2023-10-09T09:11:12;14.25;13.50;12.00
69205;PMS7003;56319;48.920;2.332;2023-10-09T09:13:43;13.25;12.75;10.75
69205;PMS7003;56319;48.920;2.332;2023-10-09T09:16:14;18.50;14.50;12.00
69205;PMS7003;56319;48.920;2.332;2023-10-09T09:21:31;4.75;1.50;1.00
69205;PMS7003;56319;48.920;2.332;2023-10-09T09:24:05;13.75;11.25;8.75
69205;PMS7003;56319;48.920;2.332;2023-10-09T09:26:53;15.00;13.50;10.75
69205;PMS7003;56319;48.920;2.332;2023-10-09T09:29:40;14.25;13.00;11.50
69205;PMS7003;56319;48.920;2.332;2023-10-09T09:32:08;16.00;14.00;12.25
69205;PMS7003;56319;48.920;2.332;2023-10-09T09:34:54;10.25;10.25;9.25
69205;PMS7003;56319;48.920;2.332;2023-10-09T09:37:25;17.00;13.75;10.50
69205;PMS7003;56319;48.920;2.332;2023-10-09T09:39:54;17.25;11.75;10.50
69205;PMS7003;56319;48.920;2.332;2023-10-09T09:42:22;13.00;12.75;11.00
69205;PMS7003;56319;48.920;2.332;2023-10-09T09:44:55;14.00;12.00;10.50
69205;PMS7003;56319;48.920;2.332;2023-10-09T09:47:21;14.00;14.00;12.00
69205;PMS7003;56319;48.920;2.332;2023-10-09T09:49:51;16.75;14.00;12.25
69205;PMS7003;56319;48.920;2.332;2023-10-09T09:52:18;12.50;12.00;10.75
69205;PMS7003;56319;48.920;2.332;2023-10-09T09:54:44;14.75;14.00;11.25
69205;PMS7003;56319;48.920;2.332;2023-10-09T09:57:14;14.00;11.75;10.25
69205;PMS7003;56319;48.920;2.332;2023-10-09T09:59:51;14.00;14.00;12.75
69205;PMS7003;56319;48.920;2.332;2023-10-09T10:02:19;14.25;13.25;10.75
69205;PMS7003;56319;48.920;2.332;2023-10-09T10:04:51;14.75;13.75;10.75
69205;PMS7003;56319;48.920;2.332;2023-10-09T10:07:21;13.75;13.25;10.75
69205;PMS7003;56319;48.920;2.332;2023-10-09T10:09:50;16.75;15.00;11.75
69205;PMS7003;56319;48.920;2.332;2023-10-09T10:12:48;13.75;12.25;10.00
69205;PMS7003;56319;48.920;2.332;2023-10-09T10:18:30;16.75;14.25;11.25
69205;PMS7003;56319;48.920;2.332;2023-10-09T10:23:43;9.75;8.25;8.00
69205;PMS7003;56319;48.920;2.332;2023-10-09T10:26:16;16.25;14.50;12.00
69205;PMS7003;56319;48.920;2.332;2023-10-09T10:28:43;13.00;13.00;11.50
69205;PMS7003;56319;48.920;2.332;2023-10-09T10:31:11;12.50;11.50;9.75
69205;PMS7003;56319;48.920;2.332;2023-10-09T10:36:32;11.00;11.00;9.25
69205;PMS7003;56319;48.920;2.332;2023-10-09T10:39:00;14.75;13.00;11.00
69205;PMS7003;56319;48.920;2.332;2023-10-09T10:41:30;17.25;12.50;10.75
69205;PMS7003;56319;48.920;2.332;2023-10-09T10:44:01;9.00;8.75;7.00
69205;PMS7003;56319;48.920;2.332;2023-10-09T10:46:47;13.25;12.50;10.25
69205;PMS7003;56319;48.920;2.332;2023-10-09T10:49:17;14.75;13.00;11.00
69205;PMS7003;56319;48.920;2.332;2023-10-09T10:51:48;12.75;10.50;9.25
69205;PMS7003;56319;48.920;2.332;2023-10-09T10:57:20;15.50;14.00;10.50
69205;PMS7003;56319;48.920;2.332;2023-10-09T11:00:10;11.50;9.25;7.25
69205;PMS7003;56319;48.920;2.332;2023-10-09T11:02:40;10.50;10.25;9.25
69205;PMS7003;56319;48.920;2.332;2023-10-09T11:05:08;14.25;11.75;9.75
69205;PMS7003;56319;48.920;2.332;2023-10-09T11:07:57;15.50;13.00;10.25
69205;PMS7003;56319;48.920;2.332;2023-10-09T11:10:23;10.25;10.25;8.00
69205;PMS7003;56319;48.920;2.332;2023-10-09T11:12:53;12.00;10.25;7.75
69205;PMS7003;56319;48.920;2.332;2023-10-09T11:15:39;14.25;12.25;10.25
69205;PMS7003;56319;48.920;2.332;2023-10-09T11:18:25;17.25;13.00;11.00
69205;PMS7003;56319;48.920;2.332;2023-10-09T11:20:52;11.50;11.50;9.00
69205;PMS7003;56319;48.920;2.332;2023-10-09T11:23:39;13.50;12.00;10.25
69205;PMS7003;56319;48.920;2.332;2023-10-09T11:26:24;10.75;10.75;10.00
69205;PMS7003;56319;48.920;2.332;2023-10-09T11:34:42;9.50;9.50;8.75
69205;PMS7003;56319;48.920;2.332;2023-10-09T11:37:17;9.25;9.25;7.50
69205;PMS7003;56319;48.920;2.332;2023-10-09T11:40:04;12.75;11.75;10.25
69205;PMS7003;56319;48.920;2.332;2023-10-09T11:42:49;12.50;11.25;9.75
69205;PMS7003;56319;48.920;2.332;2023-10-09T11:51:11;14.50;13.50;11.25
69205;PMS7003;56319;48.920;2.332;2023-10-09T11:53:44;14.75;14.00;11.50
69205;PMS7003;56319;48.920;2.332;2023-10-09T11:56:14;16.50;13.00;11.00
69205;PMS7003;56319;48.920;2.332;2023-10-09T11:58:42;11.75;11.50;9.00
69205;PMS7003;56319;48.920;2.332;2023-10-09T12:01:11;11.75;11.25;9.00
69205;PMS7003;56319;48.920;2.332;2023-10-09T12:03:43;11.50;11.50;9.00
69205;PMS7003;56319;48.920;2.332;2023-10-09T12:06:14;17.50;12.50;10.50
69205;PMS7003;56319;48.920;2.332;2023-10-09T12:08:40;12.00;10.25;8.25
69205;PMS7003;56319;48.920;2.332;2023-10-09T12:11:05;10.50;6.00;4.50
69205;PMS7003;56319;48.920;2.332;2023-10-09T12:13:34;13.00;12.00;11.00
69205;PMS7003;56319;48.920;2.332;2023-10-09T12:16:03;11.50;10.00;8.00
69205;PMS7003;56319;48.920;2.332;2023-10-09T12:18:33;11.00;9.00;7.50
69205;PMS7003;56319;48.920;2.332;2023-10-09T12:21:00;10.75;10.25;9.00
69205;PMS7003;56319;48.920;2.332;2023-10-09T12:23:29;12.25;10.75;8.75
69205;PMS7003;56319;48.920;2.332;2023-10-09T12:26:01;14.50;10.50;8.00
69205;PMS7003;56319;48.920;2.332;2023-10-09T12:28:27;12.25;11.00;8.50
69205;PMS7003;56319;48.920;2.332;2023-10-09T12:30:54;14.75;12.25;10.75
69205;PMS7003;56319;48.920;2.332;2023-10-09T12:33:20;10.50;10.00;8.75
69205;PMS7003;56319;48.920;2.332;2023-10-09T12:35:53;13.00;11.00;8.00
69205;PMS7003;56319;48.920;2.332;2023-10-09T12:38:40;9.25;9.25;8.00
69205;PMS7003;56319;48.920;2.332;2023-10-09T12:41:11;11.50;11.25;8.25
69205;PMS7003;56319;48.920;2.332;2023-10-09T12:43:56;11.00;11.00;9.25
69205;PMS7003;56319;48.920;2.332;2023-10-09T12:46:24;12.75;10.75;8.25
69205;PMS7003;56319;48.920;2.332;2023-10-09T12:48:50;10.25;9.50;7.50
69205;PMS7003;56319;48.920;2.332;2023-10-09T12:51:19;11.75;10.50;8.75
69205;PMS7003;56319;48.920;2.332;2023-10-09T12:53:46;8.00;8.00;7.25
69205;PMS7003;56319;48.920;2.332;2023-10-09T12:56:14;11.75;10.75;8.00
69205;PMS7003;56319;48.920;2.332;2023-10-09T12:58:43;10.75;10.25;8.00
69205;PMS7003;56319;48.920;2.332;2023-10-09T13:01:18;11.00;10.50;8.50
69205;PMS7003;56319;48.920;2.332;2023-10-09T13:03:45;13.75;11.00;8.50
69205;PMS7003;56319;48.920;2.332;2023-10-09T13:06:14;12.50;11.50;9.50
69205;PMS7003;56319;48.920;2.332;2023-10-09T13:08:40;12.25;10.75;8.00
69205;PMS7003;56319;48.920;2.332;2023-10-09T13:11:08;11.50;10.25;8.00
69205;PMS7003;56319;48.920;2.332;2023-10-09T13:13:36;8.50;8.50;7.00
69205;PMS7003;56319;48.920;2.332;2023-10-09T13:16:08;13.00;10.00;8.00
69205;PMS7003;56319;48.920;2.332;2023-10-09T13:18:38;15.00;11.50;9.50
69205;PMS7003;56319;48.920;2.332;2023-10-09T13:21:05;11.50;10.00;8.75
69205;PMS7003;56319;48.920;2.332;2023-10-09T13:23:30;11.25;8.25;7.00
69205;PMS7003;56319;48.920;2.332;2023-10-09T13:26:06;11.25;10.25;8.50
69205;PMS7003;56319;48.920;2.332;2023-10-09T13:28:43;11.25;11.25;9.00
69205;PMS7003;56319;48.920;2.332;2023-10-09T13:31:10;8.00;7.75;5.50
69205;PMS7003;56319;48.920;2.332;2023-10-09T13:33:40;10.75;8.00;7.00
69205;PMS7003;56319;48.920;2.332;2023-10-09T13:36:07;8.75;8.75;8.00
69205;PMS7003;56319;48.920;2.332;2023-10-09T13:38:54;10.25;8.75;7.00
69205;PMS7003;56319;48.920;2.332;2023-10-09T13:41:21;10.25;8.50;8.00
69205;PMS7003;56319;48.920;2.332;2023-10-09T13:43:47;8.50;8.50;7.25
69205;PMS7003;56319;48.920;2.332;2023-10-09T13:46:16;11.75;9.25;8.00
69205;PMS7003;56319;48.920;2.332;2023-10-09T13:48:42;9.00;9.00;7.75
69205;PMS7003;56319;48.920;2.332;2023-10-09T13:51:10;11.00;10.25;8.00
69205;PMS7003;56319;48.920;2.332;2023-10-09T13:53:43;10.00;9.00;8.00
69205;PMS7003;56319;48.920;2.332;2023-10-09T13:56:11;8.75;8.75;8.00
69205;PMS7003;56319;48.920;2.332;2023-10-09T13:58:40;9.00;8.25;7.00
69205;PMS7003;56319;48.920;2.332;2023-10-09T14:01:08;8.00;5.75;3.75
69205;PMS7003;56319;48.920;2.332;2023-10-09T14:03:34;10.75;10.75;8.00
69205;PMS7003;56319;48.920;2.332;2023-10-09T14:06:00;11.50;10.75;8.25
69205;PMS7003;56319;48.920;2.332;2023-10-09T14:08:35;10.00;9.00;7.00
69205;PMS7003;56319;48.920;2.332;2023-10-09T14:11:07;9.25;9.25;7.50
69205;PMS7003;56319;48.920;2.332;2023-10-09T14:13:39;7.75;7.00;6.00
69205;PMS7003;56319;48.920;2.332;2023-10-09T14:16:05;8.75;8.25;7.00
69205;PMS7003;56319;48.920;2.332;2023-10-09T14:18:32;6.00;6.00;6.00
69205;PMS7003;56319;48.920;2.332;2023-10-09T14:21:01;8.25;8.25;6.75
69205;PMS7003;56319;48.920;2.332;2023-10-09T14:23:30;10.00;10.00;8.00
69205;PMS7003;56319;48.920;2.332;2023-10-09T14:25:59;11.75;10.00;8.00
69205;PMS7003;56319;48.920;2.332;2023-10-09T14:28:27;9.00;9.00;7.25
69205;PMS7003;56319;48.920;2.332;2023-10-09T14:30:57;10.50;8.50;7.25
69205;PMS7003;56319;48.920;2.332;2023-10-09T14:33:25;8.25;6.75;6.00
69205;PMS7003;56319;48.920;2.332;2023-10-09T14:35:58;11.75;10.50;8.00
69205;PMS7003;56319;48.920;2.332;2023-10-09T14:38:23;10.25;9.75;8.00
69205;PMS7003;56319;48.920;2.332;2023-10-09T14:40:52;9.50;8.25;7.50
69205;PMS7003;56319;48.920;2.332;2023-10-09T14:43:22;9.25;9.25;7.75
69205;PMS7003;56319;48.920;2.332;2023-10-09T14:45:53;14.25;10.25;8.50
69205;PMS7003;56319;48.920;2.332;2023-10-09T14:48:20;9.25;8.75;7.00
69205;PMS7003;56319;48.920;2.332;2023-10-09T14:50:51;9.50;9.50;8.00
69205;PMS7003;56319;48.920;2.332;2023-10-09T14:53:22;8.00;8.00;7.00
69205;PMS7003;56319;48.920;2.332;2023-10-09T14:55:54;7.75;5.50;4.00
69205;PMS7003;56319;48.920;2.332;2023-10-09T14:58:21;9.25;8.25;7.25